sensor_id;sensor_type;location;lat;lon;timestamp;temperature;humidity
4759;DHT22;2393;50.560;12.636;2022-08-23T00:00:17;13.50;99.90
4759;DHT22;2393;50.560;12.636;2022-08-23T00:02:49;13.50;99.90
4759;DHT22;2393;50.560;12.636;2022-08-23T00:05:19;13.50;99.90
4759;DHT22;2393;50.560;12.636;2022-08-23T00:07:48;13.40;99.90
4759;DHT22;2393;50.560;12.636;2022-08-23T00:10:16;13.40;99.90
4759;DHT22;2393;50.560;12.636;2022-08-23T00:12:45;13.40;99.90
4759;DHT22;2393;50.560;12.636;2022-08-23T00:15:18;13.30;99.90
4759;DHT22;2393;50.560;12.636;2022-08-23T00:17:47;13.30;99.90
4759;DHT22;2393;50.560;12.636;2022-08-23T00:20:16;13.20;99.90
4759;DHT22;2393;50.560;12.636;2022-08-23T00:22:45;13.20;99.90
4759;DHT22;2393;50.560;12.636;2022-08-23T00:25:15;13.10;99.90
4759;DHT22;2393;50.560;12.636;2022-08-23T00:27:43;13.10;99.90
4759;DHT22;2393;50.560;12.636;2022-08-23T00:30:12;13.00;99.90
4759;DHT22;2393;50.560;12.636;2022-08-23T00:32:40;13.00;99.90
4759;DHT22;2393;50.560;12.636;2022-08-23T00:35:10;13.00;99.90
4759;DHT22;2393;50.560;12.636;2022-08-23T00:37:52;12.90;99.90
4759;DHT22;2393;50.560;12.636;2022-08-23T00:40:43;12.90;99.90
4759;DHT22;2393;50.560;12.636;2022-08-23T00:43:13;12.80;99.90
4759;DHT22;2393;50.560;12.636;2022-08-23T00:46:04;12.70;99.90
4759;DHT22;2393;50.560;12.636;2022-08-23T00:48:52;12.70;99.90
4759;DHT22;2393;50.560;12.636;2022-08-23T00:51:24;12.60;99.90
4759;DHT22;2393;50.560;12.636;2022-08-23T00:53:56;12.50;99.90
4759;DHT22;2393;50.560;12.636;2022-08-23T00:56:30;12.40;99.90
4759;DHT22;2393;50.560;12.636;2022-08-23T00:58:59;12.40;99.90
4759;DHT22;2393;50.560;12.636;2022-08-23T01:01:28;12.30;99.90
4759;DHT22;2393;50.560;12.636;2022-08-23T01:03:57;12.20;99.90
4759;DHT22;2393;50.560;12.636;2022-08-23T01:06:34;12.10;99.90
4759;DHT22;2393;50.560;12.636;2022-08-23T01:09:08;12.10;99.90
4759;DHT22;2393;50.560;12.636;2022-08-23T01:11:42;12.00;99.90
4759;DHT22;2393;50.560;12.636;2022-08-23T01:14:17;12.00;99.90
4759;DHT22;2393;50.560;12.636;2022-08-23T01:16:53;12.00;99.90
4759;DHT22;2393;50.560;12.636;2022-08-23T01:19:27;11.90;99.90
4759;DHT22;2393;50.560;12.636;2022-08-23T01:22:01;11.80;99.90
4759;DHT22;2393;50.560;12.636;2022-08-23T01:24:33;11.70;99.90
4759;DHT22;2393;50.560;12.636;2022-08-23T01:27:21;11.70;99.90
4759;DHT22;2393;50.560;12.636;2022-08-23T01:29:49;11.60;99.90
4759;DHT22;2393;50.560;12.636;2022-08-23T01:32:18;11.60;99.90
4759;DHT22;2393;50.560;12.636;2022-08-23T01:34:46;11.60;99.90
4759;DHT22;2393;50.560;12.636;2022-08-23T01:37:19;11.60;99.90
4759;DHT22;2393;50.560;12.636;2022-08-23T01:39:50;11.50;99.90
4759;DHT22;2393;50.560;12.636;2022-08-23T01:42:18;11.50;99.90
4759;DHT22;2393;50.560;12.636;2022-08-23T01:44:46;11.40;99.90
4759;DHT22;2393;50.560;12.636;2022-08-23T01:47:14;11.40;99.90
4759;DHT22;2393;50.560;12.636;2022-08-23T01:49:43;11.30;99.90
4759;DHT22;2393;50.560;12.636;2022-08-23T01:52:10;11.30;99.90
4759;DHT22;2393;50.560;12.636;2022-08-23T01:54:39;11.30;99.90
4759;DHT22;2393;50.560;12.636;2022-08-23T01:57:08;11.30;99.90
4759;DHT22;2393;50.560;12.636;2022-08-23T01:59:37;11.30;99.90
4759;DHT22;2393;50.560;12.636;2022-08-23T02:02:06;11.30;99.90
4759;DHT22;2393;50.560;12.636;2022-08-23T02:04:34;11.40;99.90
4759;DHT22;2393;50.560;12.636;2022-08-23T02:07:02;11.40;99.90
4759;DHT22;2393;50.560;12.636;2022-08-23T02:09:30;11.40;99.90
4759;DHT22;2393;50.560;12.636;2022-08-23T02:12:00;11.40;99.90
4759;DHT22;2393;50.560;12.636;2022-08-23T02:14:30;11.50;99.90
4759;DHT22;2393;50.560;12.636;2022-08-23T02:16:59;11.50;99.90
4759;DHT22;2393;50.560;12.636;2022-08-23T02:19:31;11.50;99.90
4759;DHT22;2393;50.560;12.636;2022-08-23T02:22:01;11.50;99.90
4759;DHT22;2393;50.560;12.636;2022-08-23T02:24:30;11.50;99.90
4759;DHT22;2393;50.560;12.636;2022-08-23T02:27:00;11.60;99.90
4759;DHT22;2393;50.560;12.636;2022-08-23T02:29:32;11.70;99.90
4759;DHT22;2393;50.560;12.636;2022-08-23T02:32:06;11.70;99.90
4759;DHT22;2393;50.560;12.636;2022-08-23T02:34:35;11.80;99.90
4759;DHT22;2393;50.560;12.636;2022-08-23T02:37:04;11.90;99.90
4759;DHT22;2393;50.560;12.636;2022-08-23T02:39:32;11.90;99.90
4759;DHT22;2393;50.560;12.636;2022-08-23T02:42:01;12.00;99.90
4759;DHT22;2393;50.560;12.636;2022-08-23T02:44:34;12.10;99.90
4759;DHT22;2393;50.560;12.636;2022-08-23T02:47:04;12.10;99.90
4759;DHT22;2393;50.560;12.636;2022-08-23T02:49:36;12.20;99.90
4759;DHT22;2393;50.560;12.636;2022-08-23T02:52:05;12.30;99.90
4759;DHT22;2393;50.560;12.636;2022-08-23T02:54:34;12.30;99.90
4759;DHT22;2393;50.560;12.636;2022-08-23T02:57:03;12.40;99.90
4759;DHT22;2393;50.560;12.636;2022-08-23T02:59:31;12.40;99.90
4759;DHT22;2393;50.560;12.636;2022-08-23T03:02:01;12.50;99.90
4759;DHT22;2393;50.560;12.636;2022-08-23T03:04:34;12.60;99.90
4759;DHT22;2393;50.560;12.636;2022-08-23T03:07:03;12.60;99.90
4759;DHT22;2393;50.560;12.636;2022-08-23T03:09:34;12.70;99.90
4759;DHT22;2393;50.560;12.636;2022-08-23T03:12:03;12.70;99.90
4759;DHT22;2393;50.560;12.636;2022-08-23T03:14:34;12.70;99.90
4759;DHT22;2393;50.560;12.636;2022-08-23T03:17:05;12.70;99.90
4759;DHT22;2393;50.560;12.636;2022-08-23T03:19:34;12.70;99.90
4759;DHT22;2393;50.560;12.636;2022-08-23T03:22:02;12.70;99.90
4759;DHT22;2393;50.560;12.636;2022-08-23T03:24:30;12.70;99.90
4759;DHT22;2393;50.560;12.636;2022-08-23T03:26:59;12.70;99.90
4759;DHT22;2393;50.560;12.636;2022-08-23T03:29:27;12.70;99.90
4759;DHT22;2393;50.560;12.636;2022-08-23T03:32:01;12.70;99.90
4759;DHT22;2393;50.560;12.636;2022-08-23T03:34:36;12.70;99.90
4759;DHT22;2393;50.560;12.636;2022-08-23T03:37:06;12.70;99.90
4759;DHT22;2393;50.560;12.636;2022-08-23T03:39:35;12.70;99.90
4759;DHT22;2393;50.560;12.636;2022-08-23T03:42:06;12.70;99.90
4759;DHT22;2393;50.560;12.636;2022-08-23T03:44:35;12.80;99.90
4759;DHT22;2393;50.560;12.636;2022-08-23T03:47:04;12.80;99.90
4759;DHT22;2393;50.560;12.636;2022-08-23T03:49:35;12.80;99.90
4759;DHT22;2393;50.560;12.636;2022-08-23T03:52:06;12.90;99.90
4759;DHT22;2393;50.560;12.636;2022-08-23T03:54:35;12.90;99.90
4759;DHT22;2393;50.560;12.636;2022-08-23T03:57:05;12.90;99.90
4759;DHT22;2393;50.560;12.636;2022-08-23T03:59:37;13.00;99.90
4759;DHT22;2393;50.560;12.636;2022-08-23T04:02:08;13.10;99.90
4759;DHT22;2393;50.560;12.636;2022-08-23T04:04:39;13.10;99.90
4759;DHT22;2393;50.560;12.636;2022-08-23T04:07:26;13.20;99.90
4759;DHT22;2393;50.560;12.636;2022-08-23T04:09:56;13.20;99.90
4759;DHT22;2393;50.560;12.636;2022-08-23T04:12:30;13.30;99.90
4759;DHT22;2393;50.560;12.636;2022-08-23T04:14:59;13.30;99.90
4759;DHT22;2393;50.560;12.636;2022-08-23T04:17:29;13.30;99.90
4759;DHT22;2393;50.560;12.636;2022-08-23T04:20:00;13.30;99.90
4759;DHT22;2393;50.560;12.636;2022-08-23T04:22:31;13.40;99.90
4759;DHT22;2393;50.560;12.636;2022-08-23T04:24:59;13.40;99.90
4759;DHT22;2393;50.560;12.636;2022-08-23T04:27:27;13.50;99.90
4759;DHT22;2393;50.560;12.636;2022-08-23T04:29:56;13.50;99.90
4759;DHT22;2393;50.560;12.636;2022-08-23T04:32:26;13.50;99.90
4759;DHT22;2393;50.560;12.636;2022-08-23T04:34:56;13.60;99.90
4759;DHT22;2393;50.560;12.636;2022-08-23T04:37:25;13.60;99.90
4759;DHT22;2393;50.560;12.636;2022-08-23T04:39:54;13.70;99.90
4759;DHT22;2393;50.560;12.636;2022-08-23T04:42:41;13.70;99.90
4759;DHT22;2393;50.560;12.636;2022-08-23T04:45:10;13.80;99.90
4759;DHT22;2393;50.560;12.636;2022-08-23T04:47:42;13.80;99.90
4759;DHT22;2393;50.560;12.636;2022-08-23T04:50:11;13.90;99.90
4759;DHT22;2393;50.560;12.636;2022-08-23T04:52:58;13.90;99.90
4759;DHT22;2393;50.560;12.636;2022-08-23T04:55:28;14.00;99.90
4759;DHT22;2393;50.560;12.636;2022-08-23T04:58:03;14.10;99.90
4759;DHT22;2393;50.560;12.636;2022-08-23T05:00:39;14.10;99.90
4759;DHT22;2393;50.560;12.636;2022-08-23T05:03:07;14.20;99.90
4759;DHT22;2393;50.560;12.636;2022-08-23T05:05:35;14.20;99.90
4759;DHT22;2393;50.560;12.636;2022-08-23T05:08:06;14.20;99.90
4759;DHT22;2393;50.560;12.636;2022-08-23T05:10:34;14.30;99.90
4759;DHT22;2393;50.560;12.636;2022-08-23T05:13:02;14.30;99.90
4759;DHT22;2393;50.560;12.636;2022-08-23T05:15:30;14.40;99.90
4759;DHT22;2393;50.560;12.636;2022-08-23T05:18:03;14.40;99.90
4759;DHT22;2393;50.560;12.636;2022-08-23T05:20:33;14.40;99.90
4759;DHT22;2393;50.560;12.636;2022-08-23T05:23:02;14.50;99.90
4759;DHT22;2393;50.560;12.636;2022-08-23T05:25:33;14.50;99.90
4759;DHT22;2393;50.560;12.636;2022-08-23T05:28:30;14.50;99.90
4759;DHT22;2393;50.560;12.636;2022-08-23T05:31:01;14.60;99.90
4759;DHT22;2393;50.560;12.636;2022-08-23T05:33:38;14.60;99.90
4759;DHT22;2393;50.560;12.636;2022-08-23T05:36:09;14.70;99.90
4759;DHT22;2393;50.560;12.636;2022-08-23T05:38:38;14.70;99.90
4759;DHT22;2393;50.560;12.636;2022-08-23T05:41:09;14.80;99.90
4759;DHT22;2393;50.560;12.636;2022-08-23T05:43:37;14.90;99.90
4759;DHT22;2393;50.560;12.636;2022-08-23T05:46:08;14.80;99.90
4759;DHT22;2393;50.560;12.636;2022-08-23T05:48:44;14.90;99.90
4759;DHT22;2393;50.560;12.636;2022-08-23T05:51:17;15.00;99.90
4759;DHT22;2393;50.560;12.636;2022-08-23T05:53:47;14.90;99.90
4759;DHT22;2393;50.560;12.636;2022-08-23T05:56:19;14.90;99.90
4759;DHT22;2393;50.560;12.636;2022-08-23T05:58:50;15.00;99.90
4759;DHT22;2393;50.560;12.636;2022-08-23T06:01:25;15.10;99.90
4759;DHT22;2393;50.560;12.636;2022-08-23T06:03:57;15.20;99.90
4759;DHT22;2393;50.560;12.636;2022-08-23T06:06:26;15.30;99.90
4759;DHT22;2393;50.560;12.636;2022-08-23T06:09:07;15.30;99.90
4759;DHT22;2393;50.560;12.636;2022-08-23T06:11:37;15.30;99.90
4759;DHT22;2393;50.560;12.636;2022-08-23T06:14:07;15.40;99.90
4759;DHT22;2393;50.560;12.636;2022-08-23T06:16:38;15.50;99.90
4759;DHT22;2393;50.560;12.636;2022-08-23T06:19:10;15.50;99.90
4759;DHT22;2393;50.560;12.636;2022-08-23T06:21:47;15.60;99.90
4759;DHT22;2393;50.560;12.636;2022-08-23T06:24:27;15.60;99.90
4759;DHT22;2393;50.560;12.636;2022-08-23T06:27:17;15.60;99.90
4759;DHT22;2393;50.560;12.636;2022-08-23T06:29:45;15.60;99.90
4759;DHT22;2393;50.560;12.636;2022-08-23T06:32:42;15.60;99.90
4759;DHT22;2393;50.560;12.636;2022-08-23T06:35:28;15.60;99.90
4759;DHT22;2393;50.560;12.636;2022-08-23T06:38:26;15.50;99.90
4759;DHT22;2393;50.560;12.636;2022-08-23T06:41:11;15.30;99.90
4759;DHT22;2393;50.560;12.636;2022-08-23T06:44:01;15.30;99.90
4759;DHT22;2393;50.560;12.636;2022-08-23T06:46:31;15.40;99.90
4759;DHT22;2393;50.560;12.636;2022-08-23T06:49:00;15.50;99.90
4759;DHT22;2393;50.560;12.636;2022-08-23T06:51:33;15.50;99.90
4759;DHT22;2393;50.560;12.636;2022-08-23T06:54:13;15.60;99.90
4759;DHT22;2393;50.560;12.636;2022-08-23T06:57:02;15.60;99.90
4759;DHT22;2393;50.560;12.636;2022-08-23T06:59:43;15.70;99.90
4759;DHT22;2393;50.560;12.636;2022-08-23T07:02:19;15.70;99.90
4759;DHT22;2393;50.560;12.636;2022-08-23T07:04:56;15.70;99.90
4759;DHT22;2393;50.560;12.636;2022-08-23T07:07:43;15.70;99.90
4759;DHT22;2393;50.560;12.636;2022-08-23T07:10:12;15.80;99.90
4759;DHT22;2393;50.560;12.636;2022-08-23T07:12:41;15.90;99.90
4759;DHT22;2393;50.560;12.636;2022-08-23T07:15:13;15.90;99.90
4759;DHT22;2393;50.560;12.636;2022-08-23T07:17:43;16.00;99.90
4759;DHT22;2393;50.560;12.636;2022-08-23T07:20:12;16.00;99.90
4759;DHT22;2393;50.560;12.636;2022-08-23T07:22:42;16.10;99.90
4759;DHT22;2393;50.560;12.636;2022-08-23T07:25:11;16.10;99.90
4759;DHT22;2393;50.560;12.636;2022-08-23T07:27:42;16.20;99.90
4759;DHT22;2393;50.560;12.636;2022-08-23T07:30:13;16.20;99.90
4759;DHT22;2393;50.560;12.636;2022-08-23T07:32:41;16.20;99.90
4759;DHT22;2393;50.560;12.636;2022-08-23T07:35:35;16.20;99.90
4759;DHT22;2393;50.560;12.636;2022-08-23T07:38:06;16.20;99.90
4759;DHT22;2393;50.560;12.636;2022-08-23T07:40:35;16.20;99.90
4759;DHT22;2393;50.560;12.636;2022-08-23T07:43:05;16.30;99.90
4759;DHT22;2393;50.560;12.636;2022-08-23T07:45:36;16.30;99.90
4759;DHT22;2393;50.560;12.636;2022-08-23T07:48:06;16.40;99.90
4759;DHT22;2393;50.560;12.636;2022-08-23T07:50:50;16.40;99.90
4759;DHT22;2393;50.560;12.636;2022-08-23T07:53:26;16.50;99.90
4759;DHT22;2393;50.560;12.636;2022-08-23T07:56:06;16.50;99.90
4759;DHT22;2393;50.560;12.636;2022-08-23T07:58:52;16.60;99.90
4759;DHT22;2393;50.560;12.636;2022-08-23T08:01:48;16.60;99.90
4759;DHT22;2393;50.560;12.636;2022-08-23T08:04:16;16.60;99.90
4759;DHT22;2393;50.560;12.636;2022-08-23T08:06:48;16.70;99.90
4759;DHT22;2393;50.560;12.636;2022-08-23T08:09:41;16.70;99.90
4759;DHT22;2393;50.560;12.636;2022-08-23T08:12:09;16.80;99.90
4759;DHT22;2393;50.560;12.636;2022-08-23T08:14:40;16.70;99.90
4759;DHT22;2393;50.560;12.636;2022-08-23T08:17:11;16.70;99.90
4759;DHT22;2393;50.560;12.636;2022-08-23T08:20:03;16.70;99.90
4759;DHT22;2393;50.560;12.636;2022-08-23T08:22:50;16.70;99.90
4759;DHT22;2393;50.560;12.636;2022-08-23T08:25:33;16.80;99.90
4759;DHT22;2393;50.560;12.636;2022-08-23T08:28:04;16.80;99.90
4759;DHT22;2393;50.560;12.636;2022-08-23T08:30:37;16.90;99.90
4759;DHT22;2393;50.560;12.636;2022-08-23T08:33:07;17.00;99.90
4759;DHT22;2393;50.560;12.636;2022-08-23T08:35:35;17.00;99.90
4759;DHT22;2393;50.560;12.636;2022-08-23T08:38:03;17.00;99.90
4759;DHT22;2393;50.560;12.636;2022-08-23T08:40:33;17.10;99.90
4759;DHT22;2393;50.560;12.636;2022-08-23T08:43:18;17.10;99.90
4759;DHT22;2393;50.560;12.636;2022-08-23T08:45:59;17.10;99.90
4759;DHT22;2393;50.560;12.636;2022-08-23T08:48:38;17.10;99.90
4759;DHT22;2393;50.560;12.636;2022-08-23T08:51:16;17.20;99.90
4759;DHT22;2393;50.560;12.636;2022-08-23T08:53:48;17.30;99.90
4759;DHT22;2393;50.560;12.636;2022-08-23T08:56:29;17.40;99.90
4759;DHT22;2393;50.560;12.636;2022-08-23T08:59:12;17.50;99.90
4759;DHT22;2393;50.560;12.636;2022-08-23T09:01:41;17.60;99.90
4759;DHT22;2393;50.560;12.636;2022-08-23T09:04:12;17.80;99.90
4759;DHT22;2393;50.560;12.636;2022-08-23T09:06:49;18.10;99.90
4759;DHT22;2393;50.560;12.636;2022-08-23T09:09:28;18.40;99.90
4759;DHT22;2393;50.560;12.636;2022-08-23T09:12:08;18.80;99.90
4759;DHT22;2393;50.560;12.636;2022-08-23T09:14:56;19.10;99.90
4759;DHT22;2393;50.560;12.636;2022-08-23T09:17:33;19.60;99.90
4759;DHT22;2393;50.560;12.636;2022-08-23T09:20:07;19.90;99.90
4759;DHT22;2393;50.560;12.636;2022-08-23T09:22:39;20.30;99.90
4759;DHT22;2393;50.560;12.636;2022-08-23T09:25:20;20.80;99.90
4759;DHT22;2393;50.560;12.636;2022-08-23T09:27:57;21.10;99.90
4759;DHT22;2393;50.560;12.636;2022-08-23T09:30:44;21.40;99.90
4759;DHT22;2393;50.560;12.636;2022-08-23T09:33:17;21.70;99.90
4759;DHT22;2393;50.560;12.636;2022-08-23T09:36:12;21.80;99.90
4759;DHT22;2393;50.560;12.636;2022-08-23T09:38:51;21.80;99.90
4759;DHT22;2393;50.560;12.636;2022-08-23T09:41:24;21.80;99.90
4759;DHT22;2393;50.560;12.636;2022-08-23T09:43:55;21.70;99.90
4759;DHT22;2393;50.560;12.636;2022-08-23T09:46:29;21.70;99.90
4759;DHT22;2393;50.560;12.636;2022-08-23T09:48:59;21.50;99.90
4759;DHT22;2393;50.560;12.636;2022-08-23T09:51:34;21.40;99.90
4759;DHT22;2393;50.560;12.636;2022-08-23T09:54:19;21.50;99.90
4759;DHT22;2393;50.560;12.636;2022-08-23T09:56:51;21.50;99.90
4759;DHT22;2393;50.560;12.636;2022-08-23T09:59:27;21.50;99.90
4759;DHT22;2393;50.560;12.636;2022-08-23T10:02:12;21.80;99.90
4759;DHT22;2393;50.560;12.636;2022-08-23T10:04:43;22.00;99.90
4759;DHT22;2393;50.560;12.636;2022-08-23T10:07:25;22.00;99.90
4759;DHT22;2393;50.560;12.636;2022-08-23T10:10:23;22.00;99.90
4759;DHT22;2393;50.560;12.636;2022-08-23T10:12:55;22.00;99.90
4759;DHT22;2393;50.560;12.636;2022-08-23T10:15:39;21.90;99.90
4759;DHT22;2393;50.560;12.636;2022-08-23T10:18:19;21.80;99.90
4759;DHT22;2393;50.560;12.636;2022-08-23T10:20:58;21.80;99.90
4759;DHT22;2393;50.560;12.636;2022-08-23T10:23:38;21.70;99.90
4759;DHT22;2393;50.560;12.636;2022-08-23T10:26:17;21.50;99.90
4759;DHT22;2393;50.560;12.636;2022-08-23T10:28:54;21.40;99.90
4759;DHT22;2393;50.560;12.636;2022-08-23T10:31:49;21.20;99.90
4759;DHT22;2393;50.560;12.636;2022-08-23T10:34:40;21.10;99.90
4759;DHT22;2393;50.560;12.636;2022-08-23T10:37:28;21.10;99.90
4759;DHT22;2393;50.560;12.636;2022-08-23T10:40:04;21.10;99.90
4759;DHT22;2393;50.560;12.636;2022-08-23T10:42:39;21.10;99.90
4759;DHT22;2393;50.560;12.636;2022-08-23T10:45:15;21.30;99.90
4759;DHT22;2393;50.560;12.636;2022-08-23T10:47:55;21.40;99.90
4759;DHT22;2393;50.560;12.636;2022-08-23T10:50:35;21.40;99.90
4759;DHT22;2393;50.560;12.636;2022-08-23T10:53:09;21.60;99.90
4759;DHT22;2393;50.560;12.636;2022-08-23T10:55:45;21.60;99.90
4759;DHT22;2393;50.560;12.636;2022-08-23T10:58:42;21.50;99.90
4759;DHT22;2393;50.560;12.636;2022-08-23T11:01:20;21.50;99.90
4759;DHT22;2393;50.560;12.636;2022-08-23T11:04:00;21.40;99.90
4759;DHT22;2393;50.560;12.636;2022-08-23T11:06:45;21.40;99.90
4759;DHT22;2393;50.560;12.636;2022-08-23T11:09:49;21.30;99.90
4759;DHT22;2393;50.560;12.636;2022-08-23T11:12:26;21.20;99.90
4759;DHT22;2393;50.560;12.636;2022-08-23T11:15:08;21.20;99.90
4759;DHT22;2393;50.560;12.636;2022-08-23T11:17:54;21.30;99.90
4759;DHT22;2393;50.560;12.636;2022-08-23T11:21:03;21.30;99.90
4759;DHT22;2393;50.560;12.636;2022-08-23T11:23:45;21.30;99.90
4759;DHT22;2393;50.560;12.636;2022-08-23T11:29:41;21.40;99.90
4759;DHT22;2393;50.560;12.636;2022-08-23T11:32:32;21.40;99.90
4759;DHT22;2393;50.560;12.636;2022-08-23T11:35:09;21.50;99.90
4759;DHT22;2393;50.560;12.636;2022-08-23T11:37:53;21.50;99.90
4759;DHT22;2393;50.560;12.636;2022-08-23T11:40:56;21.60;99.90
4759;DHT22;2393;50.560;12.636;2022-08-23T11:43:33;21.70;99.90
4759;DHT22;2393;50.560;12.636;2022-08-23T11:46:27;21.90;99.90
4759;DHT22;2393;50.560;12.636;2022-08-23T11:52:18;22.10;99.90
4759;DHT22;2393;50.560;12.636;2022-08-23T11:55:12;22.10;99.90
4759;DHT22;2393;50.560;12.636;2022-08-23T11:57:55;22.20;99.90
4759;DHT22;2393;50.560;12.636;2022-08-23T12:00:50;22.20;99.90
4759;DHT22;2393;50.560;12.636;2022-08-23T12:03:23;22.20;99.90
4759;DHT22;2393;50.560;12.636;2022-08-23T12:08:50;22.30;99.90
4759;DHT22;2393;50.560;12.636;2022-08-23T12:11:22;22.30;99.90
4759;DHT22;2393;50.560;12.636;2022-08-23T12:13:57;22.30;99.90
4759;DHT22;2393;50.560;12.636;2022-08-23T12:16:37;22.40;99.90
4759;DHT22;2393;50.560;12.636;2022-08-23T12:19:28;22.30;99.90
4759;DHT22;2393;50.560;12.636;2022-08-23T12:22:05;22.30;99.90
4759;DHT22;2393;50.560;12.636;2022-08-23T12:24:41;22.10;99.90
4759;DHT22;2393;50.560;12.636;2022-08-23T12:27:20;22.00;99.90
4759;DHT22;2393;50.560;12.636;2022-08-23T12:29:58;22.00;99.90
4759;DHT22;2393;50.560;12.636;2022-08-23T12:32:34;21.90;99.90
4759;DHT22;2393;50.560;12.636;2022-08-23T12:35:17;21.70;99.90
4759;DHT22;2393;50.560;12.636;2022-08-23T12:37:55;21.50;99.90
4759;DHT22;2393;50.560;12.636;2022-08-23T12:40:31;21.50;99.90
4759;DHT22;2393;50.560;12.636;2022-08-23T12:43:06;21.60;99.90
4759;DHT22;2393;50.560;12.636;2022-08-23T12:45:39;21.70;99.90
4759;DHT22;2393;50.560;12.636;2022-08-23T12:48:11;21.70;99.90
4759;DHT22;2393;50.560;12.636;2022-08-23T12:50:42;21.80;99.90
4759;DHT22;2393;50.560;12.636;2022-08-23T12:53:13;21.80;99.90
4759;DHT22;2393;50.560;12.636;2022-08-23T12:55:45;21.90;99.90
4759;DHT22;2393;50.560;12.636;2022-08-23T12:58:14;22.00;99.90
4759;DHT22;2393;50.560;12.636;2022-08-23T13:00:51;22.10;99.90
4759;DHT22;2393;50.560;12.636;2022-08-23T13:03:22;22.10;99.90
4759;DHT22;2393;50.560;12.636;2022-08-23T13:05:55;22.10;99.90
4759;DHT22;2393;50.560;12.636;2022-08-23T13:08:31;22.10;99.90
4759;DHT22;2393;50.560;12.636;2022-08-23T13:11:01;22.00;99.90
4759;DHT22;2393;50.560;12.636;2022-08-23T13:13:36;22.00;99.90
4759;DHT22;2393;50.560;12.636;2022-08-23T13:16:24;22.00;99.90
4759;DHT22;2393;50.560;12.636;2022-08-23T13:18:54;22.00;99.90
4759;DHT22;2393;50.560;12.636;2022-08-23T13:21:29;22.00;99.90
4759;DHT22;2393;50.560;12.636;2022-08-23T13:24:27;22.20;99.90
4759;DHT22;2393;50.560;12.636;2022-08-23T13:27:21;22.20;99.90
4759;DHT22;2393;50.560;12.636;2022-08-23T13:29:52;22.40;99.90
4759;DHT22;2393;50.560;12.636;2022-08-23T13:32:33;22.40;99.90
4759;DHT22;2393;50.560;12.636;2022-08-23T13:35:31;22.30;99.90
4759;DHT22;2393;50.560;12.636;2022-08-23T13:38:10;22.30;99.90
4759;DHT22;2393;50.560;12.636;2022-08-23T13:40:53;22.30;99.90
4759;DHT22;2393;50.560;12.636;2022-08-23T13:43:26;22.30;99.90
4759;DHT22;2393;50.560;12.636;2022-08-23T13:45:58;22.40;99.90
4759;DHT22;2393;50.560;12.636;2022-08-23T13:48:29;22.20;99.90
4759;DHT22;2393;50.560;12.636;2022-08-23T13:51:18;22.10;99.90
4759;DHT22;2393;50.560;12.636;2022-08-23T13:53:48;21.90;99.90
4759;DHT22;2393;50.560;12.636;2022-08-23T13:56:16;21.90;99.90
4759;DHT22;2393;50.560;12.636;2022-08-23T13:58:52;21.90;99.90
4759;DHT22;2393;50.560;12.636;2022-08-23T14:01:20;22.00;99.90
4759;DHT22;2393;50.560;12.636;2022-08-23T14:03:49;22.00;99.90
4759;DHT22;2393;50.560;12.636;2022-08-23T14:06:17;22.00;99.90
4759;DHT22;2393;50.560;12.636;2022-08-23T14:08:45;22.10;99.90
4759;DHT22;2393;50.560;12.636;2022-08-23T14:11:15;22.20;99.90
4759;DHT22;2393;50.560;12.636;2022-08-23T14:13:45;22.30;99.90
4759;DHT22;2393;50.560;12.636;2022-08-23T14:16:17;22.40;99.90
4759;DHT22;2393;50.560;12.636;2022-08-23T14:19:09;22.50;99.90
4759;DHT22;2393;50.560;12.636;2022-08-23T14:21:57;22.40;99.90
4759;DHT22;2393;50.560;12.636;2022-08-23T14:24:27;22.50;99.90
4759;DHT22;2393;50.560;12.636;2022-08-23T14:26:56;22.50;99.90
4759;DHT22;2393;50.560;12.636;2022-08-23T14:29:25;22.50;99.90
4759;DHT22;2393;50.560;12.636;2022-08-23T14:31:56;22.60;99.90
4759;DHT22;2393;50.560;12.636;2022-08-23T14:34:26;22.60;99.90
4759;DHT22;2393;50.560;12.636;2022-08-23T14:36:55;22.70;99.90
4759;DHT22;2393;50.560;12.636;2022-08-23T14:39:43;22.70;99.90
4759;DHT22;2393;50.560;12.636;2022-08-23T14:42:16;22.70;99.90
4759;DHT22;2393;50.560;12.636;2022-08-23T14:44:45;22.70;99.90
4759;DHT22;2393;50.560;12.636;2022-08-23T14:47:13;22.70;99.90
4759;DHT22;2393;50.560;12.636;2022-08-23T14:49:41;22.70;99.90
4759;DHT22;2393;50.560;12.636;2022-08-23T14:52:11;22.70;99.90
4759;DHT22;2393;50.560;12.636;2022-08-23T14:54:40;22.50;99.90
4759;DHT22;2393;50.560;12.636;2022-08-23T14:57:08;22.40;99.90
4759;DHT22;2393;50.560;12.636;2022-08-23T14:59:38;22.40;99.90
4759;DHT22;2393;50.560;12.636;2022-08-23T15:02:07;22.40;99.90
4759;DHT22;2393;50.560;12.636;2022-08-23T15:04:38;22.40;99.90
4759;DHT22;2393;50.560;12.636;2022-08-23T15:07:07;22.50;99.90
4759;DHT22;2393;50.560;12.636;2022-08-23T15:09:45;22.50;99.90
4759;DHT22;2393;50.560;12.636;2022-08-23T15:12:13;22.50;99.90
4759;DHT22;2393;50.560;12.636;2022-08-23T15:15:03;22.50;99.90
4759;DHT22;2393;50.560;12.636;2022-08-23T15:17:35;22.40;99.90
4759;DHT22;2393;50.560;12.636;2022-08-23T15:20:03;22.20;99.90
4759;DHT22;2393;50.560;12.636;2022-08-23T15:22:32;22.20;99.90
4759;DHT22;2393;50.560;12.636;2022-08-23T15:25:10;22.10;99.90
4759;DHT22;2393;50.560;12.636;2022-08-23T15:27:38;22.00;99.90
4759;DHT22;2393;50.560;12.636;2022-08-23T15:30:09;21.90;99.90
4759;DHT22;2393;50.560;12.636;2022-08-23T15:32:37;21.90;99.90
4759;DHT22;2393;50.560;12.636;2022-08-23T15:35:18;21.90;99.90
4759;DHT22;2393;50.560;12.636;2022-08-23T15:37:47;21.90;99.90
4759;DHT22;2393;50.560;12.636;2022-08-23T15:40:15;21.90;99.90
4759;DHT22;2393;50.560;12.636;2022-08-23T15:42:43;21.80;99.90
4759;DHT22;2393;50.560;12.636;2022-08-23T15:45:13;21.70;99.90
4759;DHT22;2393;50.560;12.636;2022-08-23T15:47:46;21.70;99.90
4759;DHT22;2393;50.560;12.636;2022-08-23T15:50:16;21.70;99.90
4759;DHT22;2393;50.560;12.636;2022-08-23T15:52:45;21.70;99.90
4759;DHT22;2393;50.560;12.636;2022-08-23T15:55:14;21.70;99.90
4759;DHT22;2393;50.560;12.636;2022-08-23T15:57:45;21.80;99.90
4759;DHT22;2393;50.560;12.636;2022-08-23T16:00:17;21.80;99.90
4759;DHT22;2393;50.560;12.636;2022-08-23T16:02:45;21.80;99.90
4759;DHT22;2393;50.560;12.636;2022-08-23T16:05:35;21.70;99.90
4759;DHT22;2393;50.560;12.636;2022-08-23T16:08:06;21.80;99.90
4759;DHT22;2393;50.560;12.636;2022-08-23T16:10:34;21.80;99.90
4759;DHT22;2393;50.560;12.636;2022-08-23T16:13:02;21.80;99.90
4759;DHT22;2393;50.560;12.636;2022-08-23T16:15:31;21.90;99.90
4759;DHT22;2393;50.560;12.636;2022-08-23T16:17:59;21.90;99.90
4759;DHT22;2393;50.560;12.636;2022-08-23T16:20:27;22.00;99.90
4759;DHT22;2393;50.560;12.636;2022-08-23T16:22:55;22.00;99.90
4759;DHT22;2393;50.560;12.636;2022-08-23T16:25:23;22.00;99.90
4759;DHT22;2393;50.560;12.636;2022-08-23T16:27:51;22.00;99.90
4759;DHT22;2393;50.560;12.636;2022-08-23T16:30:19;21.90;99.90
4759;DHT22;2393;50.560;12.636;2022-08-23T16:32:48;21.90;99.90
4759;DHT22;2393;50.560;12.636;2022-08-23T16:35:17;21.80;99.90
4759;DHT22;2393;50.560;12.636;2022-08-23T16:37:45;21.70;99.90
4759;DHT22;2393;50.560;12.636;2022-08-23T16:40:13;21.60;99.90